createdAt,value
2018-06-28T00:00:50.885Z,88.70
2018-06-28T00:03:20.502Z,88.30
2018-06-28T00:05:53.866Z,88.60
2018-06-28T00:08:23.526Z,89.30
2018-06-28T00:10:53.309Z,88.30
2018-06-28T00:13:22.942Z,88.40
2018-06-28T00:15:52.644Z,89.30
2018-06-28T00:18:22.362Z,87.60
2018-06-28T00:20:52.285Z,88.50
2018-06-28T00:23:21.976Z,89.20
2018-06-28T00:25:51.749Z,89.30
2018-06-28T00:28:21.500Z,88.60
2018-06-28T00:30:51.381Z,88.10
2018-06-28T00:35:50.443Z,89.10
2018-06-28T00:38:20.256Z,88.90
2018-06-28T00:40:50.038Z,89.00
2018-06-28T00:43:19.721Z,88.90
2018-06-28T00:45:49.477Z,89.00
2018-06-28T00:48:19.267Z,89.00
2018-06-28T00:50:48.897Z,88.50
2018-06-28T00:53:18.686Z,88.60
2018-06-28T00:55:48.448Z,89.20
2018-06-28T00:58:18.442Z,89.50
2018-06-28T01:00:51.511Z,89.60
2018-06-28T01:03:23.042Z,89.10
2018-06-28T01:05:55.491Z,89.40
2018-06-28T01:08:25.260Z,89.10
2018-06-28T01:10:55.140Z,88.80
2018-06-28T01:13:24.780Z,89.50
2018-06-28T01:15:54.692Z,89.70
2018-06-28T01:18:24.412Z,89.10
2018-06-28T01:20:54.141Z,89.70
2018-06-28T01:23:23.988Z,89.20
2018-06-28T01:25:53.733Z,89.30
2018-06-28T01:28:23.114Z,89.80
2018-06-28T01:30:52.520Z,89.30
2018-06-28T01:33:21.913Z,89.40
2018-06-28T01:35:51.312Z,89.20
2018-06-28T01:38:21.120Z,89.00
2018-06-28T01:40:50.850Z,89.80
2018-06-28T01:43:34.316Z,89.60
2018-06-28T01:46:04.212Z,89.90
2018-06-28T01:48:33.673Z,90.10
2018-06-28T01:51:03.157Z,90.00
2018-06-28T01:53:32.610Z,90.30
2018-06-28T01:56:02.027Z,90.10
2018-06-28T01:58:31.791Z,90.00
2018-06-28T02:01:01.669Z,90.00
2018-06-28T02:03:31.352Z,90.30
2018-06-28T02:06:01.033Z,90.10
2018-06-28T02:08:30.776Z,90.10
2018-06-28T02:11:00.448Z,90.00
2018-06-28T02:15:59.210Z,90.00
2018-06-28T02:18:28.967Z,90.10
2018-06-28T02:20:58.725Z,90.00
2018-06-28T02:23:28.426Z,90.30
2018-06-28T02:25:58.198Z,90.10
2018-06-28T02:28:27.857Z,89.90
2018-06-28T02:30:57.616Z,90.00
2018-06-28T02:33:27.377Z,90.00
2018-06-28T02:35:57.155Z,90.20
2018-06-28T02:38:26.917Z,90.00
2018-06-28T02:40:56.674Z,90.10
2018-06-28T02:43:26.313Z,90.20
2018-06-28T02:45:55.930Z,90.40
2018-06-28T02:48:25.724Z,90.20
2018-06-28T02:50:55.352Z,90.40
2018-06-28T02:53:25.148Z,90.40
2018-06-28T02:55:54.741Z,90.40
2018-06-28T02:58:24.381Z,90.40
2018-06-28T03:00:53.775Z,90.20
2018-06-28T03:03:23.132Z,90.40
2018-06-28T03:05:52.505Z,90.40
2018-06-28T03:08:21.897Z,90.40
2018-06-28T03:10:51.497Z,90.60
2018-06-28T03:13:21.100Z,90.30
2018-06-28T03:15:50.865Z,90.40
2018-06-28T03:18:20.518Z,90.50
2018-06-28T03:20:50.282Z,90.80
2018-06-28T03:23:19.941Z,90.70
2018-06-28T03:25:49.716Z,90.80
2018-06-28T03:28:19.353Z,90.30
2018-06-28T03:30:49.157Z,90.70
2018-06-28T03:33:18.828Z,90.80
2018-06-28T03:35:48.487Z,90.50
2018-06-28T03:38:18.277Z,90.70
2018-06-28T03:40:47.910Z,90.80
2018-06-28T03:43:17.620Z,90.90
2018-06-28T03:45:47.319Z,91.00
2018-06-28T03:48:17.041Z,91.10
2018-06-28T03:50:46.736Z,91.20
2018-06-28T03:53:16.509Z,91.10
2018-06-28T03:55:46.160Z,91.40
2018-06-28T03:58:15.929Z,91.30
2018-06-28T04:00:45.592Z,90.90
2018-06-28T04:03:15.299Z,91.20
2018-06-28T04:05:45.052Z,90.70
2018-06-28T04:08:14.807Z,91.10
2018-06-28T04:10:44.480Z,90.90
2018-06-28T04:13:14.241Z,91.10
2018-06-28T04:15:43.937Z,91.20
2018-06-28T04:18:13.613Z,91.10
2018-06-28T04:23:12.364Z,91.20
2018-06-28T04:25:42.221Z,91.10
2018-06-28T04:28:12.102Z,91.10
2018-06-28T04:30:41.772Z,91.30
2018-06-28T04:33:11.561Z,91.20
2018-06-28T04:35:41.278Z,91.20
2018-06-28T04:38:11.096Z,91.40
2018-06-28T04:40:40.640Z,91.10
2018-06-28T04:43:10.335Z,91.20
2018-06-28T04:45:40.049Z,91.20
2018-06-28T04:48:09.777Z,91.20
2018-06-28T04:50:39.589Z,91.30
2018-06-28T04:53:09.365Z,91.30
2018-06-28T04:55:39.147Z,91.40
2018-06-28T05:00:38.474Z,91.30
2018-06-28T05:03:08.405Z,91.30
2018-06-28T05:05:38.314Z,91.50
2018-06-28T05:08:08.128Z,91.60
2018-06-28T05:10:37.873Z,91.60
2018-06-28T05:13:07.662Z,91.40
2018-06-28T05:15:37.540Z,91.20
2018-06-28T05:18:07.270Z,91.50
2018-06-28T05:20:36.912Z,91.40
2018-06-28T05:23:06.725Z,91.40
2018-06-28T05:25:36.420Z,91.60
2018-06-28T05:28:06.240Z,91.60
2018-06-28T05:33:04.953Z,91.60
2018-06-28T05:35:34.544Z,91.70
2018-06-28T05:38:04.379Z,91.60
2018-06-28T05:40:34.163Z,91.60
2018-06-28T05:43:03.895Z,91.70
2018-06-28T05:45:33.583Z,91.70
2018-06-28T05:48:03.461Z,91.70
2018-06-28T05:50:33.085Z,91.50
2018-06-28T05:53:02.885Z,91.70
2018-06-28T05:55:32.607Z,91.40
2018-06-28T05:58:02.313Z,91.20
2018-06-28T06:00:32.088Z,91.40
2018-06-28T06:03:01.670Z,91.50
2018-06-28T06:05:31.432Z,91.40
2018-06-28T06:08:01.195Z,91.50
2018-06-28T06:10:31.061Z,91.50
2018-06-28T06:13:00.818Z,91.50
2018-06-28T06:15:30.680Z,91.60
2018-06-28T06:18:00.438Z,91.40
2018-06-28T06:20:30.303Z,91.50
2018-06-28T06:23:00.081Z,91.50
2018-06-28T06:25:29.862Z,91.30
2018-06-28T06:27:59.492Z,91.30
2018-06-28T06:30:29.386Z,91.50
2018-06-28T06:32:59.060Z,91.30
2018-06-28T06:35:29.008Z,91.30
2018-06-28T06:40:27.881Z,91.70
2018-06-28T06:42:57.543Z,91.40
2018-06-28T06:45:27.461Z,91.20
2018-06-28T06:47:57.290Z,91.40
2018-06-28T06:50:27.056Z,91.40
2018-06-28T06:52:56.778Z,91.40
2018-06-28T06:55:26.401Z,91.40
2018-06-28T06:57:56.369Z,91.40
2018-06-28T07:00:26.096Z,91.40
2018-06-28T07:02:55.986Z,91.40
2018-06-28T07:05:25.725Z,91.30
2018-06-28T07:07:55.405Z,91.30
2018-06-28T07:10:24.979Z,91.30
2018-06-28T07:12:54.642Z,91.20
2018-06-28T07:15:24.416Z,91.30
2018-06-28T07:17:54.063Z,91.20
2018-06-28T07:20:23.857Z,91.00
2018-06-28T07:22:53.663Z,91.30
2018-06-28T07:25:23.480Z,91.10
2018-06-28T07:30:22.216Z,91.20
2018-06-28T07:32:51.992Z,91.30
2018-06-28T07:35:21.849Z,91.00
2018-06-28T07:37:51.617Z,90.90
2018-06-28T07:40:21.379Z,90.90
2018-06-28T07:42:51.269Z,90.90
2018-06-28T07:45:21.009Z,90.80
2018-06-28T07:47:50.860Z,90.60
2018-06-28T07:50:20.631Z,90.50
2018-06-28T07:52:50.423Z,90.10
2018-06-28T07:55:20.263Z,87.30
2018-06-28T07:57:50.045Z,1.00
2018-06-28T08:00:19.927Z,1.00
2018-06-28T08:02:49.605Z,1.00
2018-06-28T08:05:19.454Z,1.00
2018-06-28T08:07:49.128Z,1.00
2018-06-28T08:10:18.729Z,99.90
2018-06-28T08:12:48.472Z,99.90
2018-06-28T08:15:18.221Z,99.90
2018-06-28T08:17:47.999Z,99.90
2018-06-28T08:20:17.861Z,99.90
2018-06-28T08:22:47.722Z,99.90
2018-06-28T08:25:17.672Z,99.90
2018-06-28T08:27:47.350Z,99.90
2018-06-28T08:32:46.205Z,99.90
2018-06-28T08:35:16.072Z,99.90
2018-06-28T08:37:45.829Z,99.90
2018-06-28T08:40:15.588Z,99.90
2018-06-28T08:42:45.229Z,99.90
2018-06-28T08:45:14.952Z,99.90
2018-06-28T08:47:44.837Z,99.90
2018-06-28T08:50:14.589Z,99.90
2018-06-28T08:52:44.449Z,99.90
2018-06-28T08:55:14.184Z,99.90
2018-06-28T08:57:44.019Z,99.90
2018-06-28T09:00:13.840Z,99.90
2018-06-28T09:02:43.702Z,99.90
2018-06-28T09:05:13.568Z,99.90
2018-06-28T09:07:43.420Z,99.90
2018-06-28T09:10:13.352Z,99.90
2018-06-28T09:12:43.048Z,99.90
2018-06-28T09:15:12.873Z,99.90
2018-06-28T09:17:42.729Z,99.90
2018-06-28T09:20:12.626Z,99.90
2018-06-28T09:22:42.435Z,99.90
2018-06-28T09:25:11.796Z,99.90
2018-06-28T09:27:41.168Z,99.90
2018-06-28T09:30:10.648Z,99.90
2018-06-28T09:32:40.592Z,99.90
2018-06-28T09:35:10.000Z,99.90
2018-06-28T09:37:39.436Z,99.90
2018-06-28T09:40:08.820Z,99.90
2018-06-28T09:42:38.206Z,99.90
2018-06-28T09:45:07.977Z,99.90
2018-06-28T09:47:37.504Z,99.90
2018-06-28T09:50:07.051Z,99.90
2018-06-28T09:52:36.432Z,99.90
2018-06-28T09:55:05.846Z,99.90
2018-06-28T09:57:35.227Z,99.90
2018-06-28T10:00:05.420Z,99.90
2018-06-28T10:02:35.057Z,99.90
2018-06-28T10:05:04.554Z,99.90
2018-06-28T10:07:33.930Z,99.90
2018-06-28T10:10:03.301Z,99.90
2018-06-28T10:12:32.655Z,99.90
2018-06-28T10:15:02.457Z,99.90
2018-06-28T10:17:32.248Z,99.90
2018-06-28T10:20:01.734Z,99.90
2018-06-28T10:22:31.401Z,99.90
2018-06-28T10:25:01.139Z,99.90
2018-06-28T10:27:30.861Z,99.90
2018-06-28T10:30:00.361Z,99.90
2018-06-28T10:32:30.236Z,99.90
2018-06-28T10:34:59.996Z,99.90
2018-06-28T10:39:58.629Z,99.90
2018-06-28T10:42:28.301Z,99.90
2018-06-28T10:44:57.953Z,99.90
2018-06-28T10:47:27.618Z,99.90
2018-06-28T10:52:26.464Z,99.90
2018-06-28T10:54:56.087Z,99.90
2018-06-28T10:57:25.667Z,99.90
2018-06-28T10:59:55.493Z,99.90
2018-06-28T11:02:25.144Z,99.90
2018-06-28T11:04:54.882Z,99.90
2018-06-28T11:07:24.672Z,99.90
2018-06-28T11:09:54.717Z,99.90
2018-06-28T11:12:24.367Z,99.90
2018-06-28T11:14:54.121Z,99.90
2018-06-28T11:17:29.038Z,99.90
2018-06-28T11:19:58.702Z,99.90
2018-06-28T11:22:28.248Z,99.90
2018-06-28T11:24:57.927Z,99.90
2018-06-28T11:27:27.629Z,99.90
2018-06-28T11:29:57.758Z,99.90
2018-06-28T11:32:27.352Z,99.90
2018-06-28T11:34:57.062Z,99.90
2018-06-28T11:37:26.748Z,99.90
2018-06-28T11:39:56.595Z,99.90
2018-06-28T11:42:27.227Z,99.90
2018-06-28T11:44:57.421Z,99.90
2018-06-28T11:47:27.423Z,99.90
2018-06-28T11:49:57.909Z,99.90
2018-06-28T11:52:28.608Z,99.90
2018-06-28T11:54:58.022Z,99.90
2018-06-28T11:57:28.336Z,99.90
2018-06-28T11:59:58.244Z,99.90
2018-06-28T12:02:28.280Z,99.90
2018-06-28T12:04:58.432Z,99.90
2018-06-28T12:07:29.196Z,99.90
2018-06-28T12:09:59.756Z,99.90
2018-06-28T12:12:30.126Z,99.90
2018-06-28T12:15:00.317Z,99.90
2018-06-28T12:17:29.773Z,99.90
2018-06-28T12:20:01.952Z,99.90
2018-06-28T12:22:32.838Z,99.90
2018-06-28T12:25:02.291Z,99.90
2018-06-28T12:27:31.807Z,99.90
2018-06-28T12:30:01.187Z,99.90
2018-06-28T12:32:30.695Z,99.90
2018-06-28T12:35:00.125Z,99.90
2018-06-28T12:37:29.488Z,99.90
2018-06-28T12:39:58.864Z,99.90
2018-06-28T12:42:28.346Z,99.90
2018-06-28T12:44:57.766Z,99.90
2018-06-28T12:47:55.248Z,99.90
2018-06-28T12:50:24.657Z,99.90
2018-06-28T12:53:01.813Z,99.90
2018-06-28T12:56:43.861Z,99.90
2018-06-28T13:01:43.738Z,99.90
2018-06-28T13:04:14.035Z,99.90
2018-06-28T13:06:44.764Z,99.90
2018-06-28T13:09:17.357Z,99.90
2018-06-28T13:11:49.392Z,99.90
2018-06-28T13:14:19.941Z,99.90
2018-06-28T13:16:49.992Z,99.90
2018-06-28T13:19:21.326Z,99.90
2018-06-28T13:21:50.768Z,99.90
2018-06-28T13:24:20.345Z,99.90
2018-06-28T13:26:50.305Z,1.00
2018-06-28T13:29:20.655Z,99.90
2018-06-28T13:31:50.856Z,99.90
2018-06-28T13:36:50.096Z,1.00
2018-06-28T13:39:20.437Z,99.90
2018-06-28T13:41:50.810Z,99.90
2018-06-28T13:44:20.706Z,99.90
2018-06-28T13:46:50.485Z,99.90
2018-06-28T13:49:23.332Z,99.90
2018-06-28T13:51:53.563Z,99.90
2018-06-28T13:54:25.153Z,99.90
2018-06-28T13:56:55.946Z,99.90
2018-06-28T13:59:25.403Z,99.90
2018-06-28T14:01:55.696Z,99.90
2018-06-28T14:04:26.122Z,99.90
2018-06-28T14:07:01.160Z,99.90
2018-06-28T14:09:33.870Z,99.90
2018-06-28T14:12:03.846Z,99.90
2018-06-28T14:14:35.093Z,99.90
2018-06-28T14:17:06.236Z,99.90
2018-06-28T14:19:37.225Z,99.90
2018-06-28T14:22:08.501Z,99.90
2018-06-28T14:24:37.995Z,99.90
2018-06-28T14:27:07.853Z,99.90
2018-06-28T14:29:37.537Z,99.90
2018-06-28T14:32:07.912Z,99.90
2018-06-28T14:34:37.926Z,99.90
2018-06-28T14:37:07.882Z,99.90
2018-06-28T14:39:37.857Z,99.90
2018-06-28T14:42:07.772Z,99.90
2018-06-28T14:44:37.735Z,99.90
2018-06-28T14:47:07.685Z,99.90
2018-06-28T14:49:37.569Z,99.90
2018-06-28T14:52:07.584Z,99.90
2018-06-28T14:54:37.508Z,99.90
2018-06-28T14:57:07.492Z,99.90
2018-06-28T14:59:37.574Z,99.90
2018-06-28T15:02:07.604Z,99.90
2018-06-28T15:04:37.664Z,99.90
2018-06-28T15:07:07.061Z,99.90
2018-06-28T15:09:36.879Z,99.90
2018-06-28T15:12:06.337Z,99.90
2018-06-28T15:14:35.728Z,99.90
2018-06-28T15:17:05.212Z,99.90
2018-06-28T15:19:34.792Z,99.90
2018-06-28T15:22:04.153Z,99.90
2018-06-28T15:24:33.585Z,99.90
2018-06-28T15:27:03.417Z,99.90
2018-06-28T15:29:33.053Z,99.90
2018-06-28T15:32:02.635Z,99.90
2018-06-28T15:37:01.750Z,99.90
2018-06-28T15:39:32.510Z,99.90
2018-06-28T15:42:03.080Z,99.90
2018-06-28T15:44:34.008Z,99.90
2018-06-28T15:47:04.363Z,99.90
2018-06-28T15:52:03.298Z,99.90
2018-06-28T15:54:33.225Z,99.90
2018-06-28T15:57:03.545Z,99.90
2018-06-28T15:59:33.797Z,99.90
2018-06-28T16:02:03.853Z,99.90
2018-06-28T16:04:33.682Z,99.90
2018-06-28T16:07:04.598Z,99.90
2018-06-28T16:09:34.573Z,99.90
2018-06-28T16:12:04.617Z,99.90
2018-06-28T16:14:34.209Z,99.90
2018-06-28T16:17:03.969Z,99.90
2018-06-28T16:19:34.066Z,99.90
2018-06-28T16:22:04.369Z,99.90
2018-06-28T16:24:34.692Z,99.90
2018-06-28T16:27:06.983Z,99.90
2018-06-28T16:29:37.392Z,99.90
2018-06-28T16:32:08.601Z,99.90
2018-06-28T16:34:38.535Z,99.90
2018-06-28T16:37:09.548Z,99.90
2018-06-28T16:39:39.251Z,99.90
2018-06-28T16:42:09.741Z,99.90
2018-06-28T16:44:39.399Z,99.90
2018-06-28T16:47:09.485Z,99.90
2018-06-28T16:49:38.856Z,99.90
2018-06-28T16:52:08.736Z,99.90
2018-06-28T16:54:38.107Z,99.90
2018-06-28T16:57:08.008Z,99.90
2018-06-28T16:59:37.525Z,99.90
2018-06-28T17:02:07.679Z,99.90
2018-06-28T17:04:37.269Z,99.90
2018-06-28T17:07:06.744Z,99.90
2018-06-28T17:09:36.176Z,99.90
2018-06-28T17:12:05.789Z,99.90
2018-06-28T17:14:35.580Z,99.90
2018-06-28T17:17:05.125Z,99.90
2018-06-28T17:19:34.697Z,99.90
2018-06-28T17:22:04.744Z,99.90
2018-06-28T17:24:34.619Z,99.90
2018-06-28T17:27:04.074Z,99.90
2018-06-28T17:29:33.460Z,99.90
2018-06-28T17:32:02.881Z,99.90
2018-06-28T17:34:32.292Z,99.90
2018-06-28T17:37:01.735Z,99.90
2018-06-28T17:39:31.161Z,99.90
2018-06-28T17:42:00.601Z,99.90
2018-06-28T17:44:30.152Z,99.90
2018-06-28T17:49:28.504Z,99.90
2018-06-28T17:51:57.961Z,99.90
2018-06-28T17:54:27.894Z,99.90
2018-06-28T17:56:57.522Z,99.90
2018-06-28T17:59:27.440Z,99.90
2018-06-28T18:01:57.141Z,99.90
2018-06-28T18:04:26.848Z,99.90
2018-06-28T18:06:56.261Z,99.90
2018-06-28T18:09:26.177Z,99.90
2018-06-28T18:11:55.756Z,99.90
2018-06-28T18:14:25.328Z,99.90
2018-06-28T18:16:54.805Z,99.90
2018-06-28T18:19:24.389Z,99.90
2018-06-28T18:21:54.184Z,99.90
2018-06-28T18:24:23.558Z,99.90
2018-06-28T18:26:52.924Z,99.90
2018-06-28T18:29:22.309Z,99.90
2018-06-28T18:31:51.676Z,99.90
2018-06-28T18:34:21.032Z,99.90
2018-06-28T18:36:50.456Z,99.90
2018-06-28T18:39:19.821Z,99.90
2018-06-28T18:41:49.242Z,99.90
2018-06-28T18:44:19.072Z,99.90
2018-06-28T18:46:48.727Z,99.90
2018-06-28T18:49:18.112Z,99.90
2018-06-28T18:51:47.842Z,99.90
2018-06-28T18:54:17.236Z,99.90
2018-06-28T18:56:46.690Z,99.90
2018-06-28T18:59:16.061Z,99.90
2018-06-28T19:01:45.505Z,99.90
2018-06-28T19:04:14.883Z,99.90
2018-06-28T19:06:45.161Z,99.90
2018-06-28T19:09:14.637Z,99.90
2018-06-28T19:11:44.093Z,99.90
2018-06-28T19:14:18.684Z,99.90
2018-06-28T19:16:52.889Z,99.90
2018-06-28T19:19:22.251Z,99.90
2018-06-28T19:21:56.789Z,99.90
2018-06-28T19:24:26.216Z,99.90
2018-06-28T19:26:55.581Z,99.90
2018-06-28T19:29:30.037Z,99.90
2018-06-28T19:32:04.357Z,99.90
2018-06-28T19:34:33.788Z,99.90
2018-06-28T19:37:03.672Z,99.90
2018-06-28T19:41:43.121Z,99.90
2018-06-28T19:44:12.530Z,99.90
2018-06-28T19:46:41.916Z,99.90
2018-06-28T19:49:16.276Z,99.90
2018-06-28T19:51:50.804Z,99.90
2018-06-28T19:54:20.167Z,99.90
2018-06-28T19:56:49.913Z,99.90
2018-06-28T19:59:19.444Z,99.90
2018-06-28T20:01:54.218Z,99.90
2018-06-28T20:04:28.861Z,99.90
2018-06-28T20:06:58.281Z,99.90
2018-06-28T20:09:27.761Z,99.90
2018-06-28T20:11:57.162Z,99.90
2018-06-28T20:16:38.641Z,99.90
2018-06-28T20:19:13.094Z,99.90
2018-06-28T20:21:42.488Z,99.90
2018-06-28T20:24:11.928Z,99.90
2018-06-28T20:26:46.413Z,99.90
2018-06-28T20:29:20.828Z,99.90
2018-06-28T20:31:55.178Z,99.90
2018-06-28T20:34:24.649Z,99.90
2018-06-28T20:36:54.036Z,99.90
2018-06-28T20:39:23.409Z,99.90
2018-06-28T20:41:52.853Z,99.90
2018-06-28T20:44:22.233Z,99.90
2018-06-28T20:46:51.608Z,99.90
2018-06-28T20:49:20.979Z,99.90
2018-06-28T20:51:50.365Z,99.90
2018-06-28T20:54:19.758Z,99.90
2018-06-28T20:56:49.146Z,99.90
2018-06-28T20:59:18.813Z,99.90
2018-06-28T21:01:48.198Z,99.90
2018-06-28T21:04:17.589Z,99.90
2018-06-28T21:06:46.951Z,99.90
2018-06-28T21:09:16.328Z,99.90
2018-06-28T21:11:45.759Z,99.90
2018-06-28T21:14:15.560Z,99.90
2018-06-28T21:16:45.331Z,99.90
2018-06-28T21:19:14.709Z,99.90
2018-06-28T21:21:44.107Z,99.90
2018-06-28T21:24:13.880Z,99.90
2018-06-28T21:26:43.276Z,99.90
2018-06-28T21:29:12.667Z,99.90
2018-06-28T21:31:42.089Z,99.90
2018-06-28T21:34:11.441Z,99.90
2018-06-28T21:36:40.869Z,99.90
2018-06-28T21:39:11.368Z,99.90
2018-06-28T21:41:40.839Z,99.90
2018-06-28T21:44:10.222Z,99.90
2018-06-28T21:46:39.592Z,99.90
2018-06-28T21:49:08.985Z,99.90
2018-06-28T21:51:38.352Z,99.90
2018-06-28T21:54:07.729Z,99.90
2018-06-28T21:56:37.092Z,99.90
2018-06-28T21:59:06.483Z,99.90
2018-06-28T22:01:36.231Z,99.90
2018-06-28T22:04:05.596Z,99.90
2018-06-28T22:06:35.344Z,99.90
2018-06-28T22:09:06.104Z,99.90
2018-06-28T22:11:35.764Z,99.90
2018-06-28T22:14:05.457Z,99.90
2018-06-28T22:16:34.837Z,99.90
2018-06-28T22:19:04.225Z,99.90
2018-06-28T22:21:33.600Z,99.90
2018-06-28T22:24:02.964Z,99.90
2018-06-28T22:26:32.383Z,99.90
2018-06-28T22:31:31.015Z,99.90
2018-06-28T22:34:00.478Z,99.90
2018-06-28T22:36:29.871Z,99.90
2018-06-28T22:38:59.288Z,99.90
2018-06-28T22:41:28.665Z,99.90
2018-06-28T22:43:58.069Z,99.90
2018-06-28T22:46:27.599Z,99.90
2018-06-28T22:48:57.006Z,99.90
2018-06-28T22:51:26.384Z,99.90
2018-06-28T22:53:55.803Z,99.90
2018-06-28T22:56:25.201Z,99.90
2018-06-28T22:58:54.772Z,99.90
2018-06-28T23:01:24.261Z,99.90
2018-06-28T23:03:53.636Z,99.90
2018-06-28T23:06:23.029Z,99.90
2018-06-28T23:08:52.402Z,99.90
2018-06-28T23:11:21.796Z,99.90
2018-06-28T23:13:51.180Z,99.90
2018-06-28T23:16:20.580Z,99.90
2018-06-28T23:18:49.939Z,99.90
2018-06-28T23:21:19.610Z,99.90
2018-06-28T23:23:49.421Z,99.90
2018-06-28T23:26:19.064Z,99.90
2018-06-28T23:28:48.672Z,99.90
2018-06-28T23:31:18.708Z,99.90
2018-06-28T23:33:48.455Z,99.90
2018-06-28T23:36:18.328Z,99.90
2018-06-28T23:38:47.962Z,99.90
2018-06-28T23:41:17.671Z,99.90
2018-06-28T23:43:47.282Z,99.90
2018-06-28T23:46:17.207Z,99.90
2018-06-28T23:48:46.888Z,99.90
2018-06-28T23:51:16.687Z,99.90
2018-06-28T23:53:46.311Z,99.90
2018-06-28T23:56:16.013Z,99.90
2018-06-28T23:58:45.600Z,99.90
